
Distance (Route):
Temperature : -44.4°C
Humidity : 0.0%
Pressure : 0hPa| Receiver | Frames | First received | Last received |
|---|---|---|---|
| LZ4TU-5 | 47 | 2026-09-06 00:34:00 | 2026-09-06 00:59:28 |
| Receiver | Date | Latitude | Longitude | Direction | Speed | Altitude | Climb | Temperature | Humidity | Pressure | Voltage | Killtimer | Uptime | BKT | XDATA |
|---|---|---|---|---|---|---|---|---|---|---|---|---|---|---|---|
| LZ4TU-5 | 2026-09-06 00:59:28 | 40.30121 | 23.69599 | 107° | 80km/h | 14757m | -4.1m/s | -44.4°C | 0.0% | 0hPa | 0V | 00:00:00 | 00:00:00 | 00:00:00 | |
| LZ4TU-5 | 2026-09-06 00:59:24 | 40.30135 | 23.69496 | 103° | 80km/h | 14772m | -4.7m/s | -44.4°C | 0.0% | 0hPa | 0V | 00:00:00 | 00:00:00 | 00:00:00 | |
| LZ4TU-5 | 2026-09-06 00:59:14 | 40.30169 | 23.69243 | 99° | 75km/h | 14807m | -3.2m/s | -44.4°C | 0.0% | 0hPa | 0V | 00:00:00 | 00:00:00 | 00:00:00 | |
| LZ4TU-5 | 2026-09-06 00:59:09 | 40.30186 | 23.69112 | 102° | 75km/h | 14825m | -4.3m/s | -44.4°C | 0.0% | 0hPa | 0V | 00:00:00 | 00:00:00 | 00:00:00 | |
| LZ4TU-5 | 2026-09-06 00:59:04 | 40.30206 | 23.68981 | 107° | 88km/h | 14844m | -2.9m/s | -44.4°C | 0.0% | 0hPa | 0V | 00:00:00 | 00:00:00 | 00:00:00 | |
| LZ4TU-5 | 2026-09-06 00:57:11 | 40.30712 | 23.66288 | 99° | 58km/h | 15247m | -4.2m/s | -44.4°C | 0.0% | 0hPa | 0V | 00:00:00 | 00:00:00 | 00:00:00 | |
| LZ4TU-5 | 2026-09-06 00:57:06 | 40.30733 | 23.66181 | 110° | 68km/h | 15264m | -2.7m/s | -44.4°C | 0% | 0hPa | 0V | 00:00:00 | 00:00:00 | 00:00:00 | |
| LZ4TU-5 | 2026-09-06 00:55:27 | 40.30997 | 23.64002 | 86° | 71km/h | 15600m | -2.3m/s | -44.4°C | 0.0% | 0hPa | 0V | 00:00:00 | 00:00:00 | 00:00:00 | |
| LZ4TU-5 | 2026-09-06 00:55:22 | 40.31002 | 23.63881 | 99° | 73km/h | 15617m | -3.9m/s | -44.4°C | 0.0% | 0hPa | 0V | 00:00:00 | 00:00:00 | 00:00:00 | |
| LZ4TU-5 | 2026-09-06 00:53:09 | 40.31415 | 23.60973 | 78° | 53km/h | 16096m | -4.8m/s | -44.4°C | 0.0% | 0hPa | 0V | 00:00:00 | 00:00:00 | 00:00:00 | |
| LZ4TU-5 | 2026-09-06 00:53:05 | 40.31411 | 23.60897 | 85° | 51km/h | 16110m | -4.5m/s | -44.4°C | 0.0% | 0hPa | 0V | 00:00:00 | 00:00:00 | 00:00:00 | |
| LZ4TU-5 | 2026-09-06 00:53:00 | 40.31405 | 23.60802 | 89° | 64km/h | 16129m | -3.9m/s | -44.4°C | 0.0% | 0hPa | 0V | 00:00:00 | 00:00:00 | 00:00:00 | |
| LZ4TU-5 | 2026-09-06 00:52:56 | 40.31400 | 23.60721 | 91° | 64km/h | 16143m | -4.2m/s | -44.4°C | 0.0% | 0hPa | 0V | 00:00:00 | 00:00:00 | 00:00:00 | |
| LZ4TU-5 | 2026-09-06 00:52:45 | 40.31380 | 23.60496 | 86° | 71km/h | 16183m | -4.3m/s | -44.4°C | 0.0% | 0hPa | 0V | 00:00:00 | 00:00:00 | 00:00:00 | |
| LZ4TU-5 | 2026-09-06 00:48:44 | 40.31590 | 23.55169 | 93° | 58km/h | 16970m | -3.0m/s | -44.4°C | 0.0% | 0hPa | 0V | 00:00:00 | 00:00:00 | 00:00:00 | |
| LZ4TU-5 | 2026-09-06 00:48:38 | 40.31595 | 23.55064 | 94° | 68km/h | 16984m | -2.6m/s | -44.4°C | 0% | 0hPa | 0V | 00:00:00 | 00:00:00 | 00:00:00 | |
| LZ4TU-5 | 2026-09-06 00:46:37 | 40.31807 | 23.52487 | 102° | 62km/h | 17254m | -2.0m/s | -44.4°C | 0.0% | 0hPa | 0V | 00:00:00 | 00:00:00 | 00:00:00 | |
| LZ4TU-5 | 2026-09-06 00:46:32 | 40.31823 | 23.52390 | 101° | 57km/h | 17265m | -2.1m/s | -44.4°C | 0.0% | 0hPa | 0V | 00:00:00 | 00:00:00 | 00:00:00 | |
| LZ4TU-5 | 2026-09-06 00:46:28 | 40.31836 | 23.52313 | 106° | 58km/h | 17273m | -2.0m/s | -44.4°C | 0.0% | 0hPa | 0V | 00:00:00 | 00:00:00 | 00:00:00 | |
| LZ4TU-5 | 2026-09-06 00:46:23 | 40.31851 | 23.52223 | 104° | 60km/h | 17284m | -1.8m/s | -44.4°C | 0.0% | 0hPa | 0V | 00:00:00 | 00:00:00 | 00:00:00 | |
| LZ4TU-5 | 2026-09-06 00:44:36 | 40.32275 | 23.50851 | 118° | 26km/h | 17519m | -2.4m/s | -44.4°C | 0.0% | 0hPa | 0V | 00:00:00 | 00:00:00 | 00:00:00 | |
| LZ4TU-5 | 2026-09-06 00:44:32 | 40.32289 | 23.50820 | 119° | 29km/h | 17528m | -2.2m/s | -44.4°C | 0.0% | 0hPa | 0V | 00:00:00 | 00:00:00 | 00:00:00 | |
| LZ4TU-5 | 2026-09-06 00:44:27 | 40.32305 | 23.50777 | 114° | 27km/h | 17539m | -2.3m/s | -44.4°C | 0% | 0hPa | 0V | 00:00:00 | 00:00:00 | 00:00:00 | |
| LZ4TU-5 | 2026-09-06 00:42:49 | 40.32467 | 23.49856 | 100° | 35km/h | 17728m | -1.2m/s | -44.4°C | 0.0% | 0hPa | 0V | 00:00:00 | 00:00:00 | 00:00:00 | |
| LZ4TU-5 | 2026-09-06 00:42:45 | 40.32473 | 23.49811 | 101° | 37km/h | 17733m | -1.1m/s | -44.4°C | 0.0% | 0hPa | 0V | 00:00:00 | 00:00:00 | 00:00:00 | |
| LZ4TU-5 | 2026-09-06 00:42:41 | 40.32479 | 23.49763 | 99° | 38km/h | 17737m | -1.2m/s | -44.4°C | 0.0% | 0hPa | 0V | 00:00:00 | 00:00:00 | 00:00:00 | |
| LZ4TU-5 | 2026-09-06 00:42:37 | 40.32486 | 23.49703 | 98° | 35km/h | 17743m | -1.2m/s | -44.4°C | 0.0% | 0hPa | 0V | 00:00:00 | 00:00:00 | 00:00:00 | |
| LZ4TU-5 | 2026-09-06 00:41:00 | 40.32543 | 23.48473 | 94° | 40km/h | 17760m | 0.7m/s | -44.4°C | 0.0% | 0hPa | 0V | 00:00:00 | 00:00:00 | 00:00:00 | |
| LZ4TU-5 | 2026-09-06 00:40:56 | 40.32546 | 23.48421 | 94° | 40km/h | 17757m | 0.8m/s | -44.4°C | 0.0% | 0hPa | 0V | 00:00:00 | 00:00:00 | 00:00:00 | |
| LZ4TU-5 | 2026-09-06 00:40:51 | 40.32548 | 23.48356 | 94° | 40km/h | 17752m | 0.8m/s | -44.4°C | 0.0% | 0hPa | 0V | 00:00:00 | 00:00:00 | 00:00:00 | |
| LZ4TU-5 | 2026-09-06 00:40:46 | 40.32550 | 23.48291 | 93° | 40km/h | 17749m | 0.8m/s | -44.4°C | 0.0% | 0hPa | 0V | 00:00:00 | 00:00:00 | 00:00:00 | |
| LZ4TU-5 | 2026-09-06 00:40:42 | 40.32551 | 23.48239 | 93° | 40km/h | 17745m | 0.6m/s | -44.4°C | 0.0% | 0hPa | 0V | 00:00:00 | 00:00:00 | 00:00:00 | |
| LZ4TU-5 | 2026-09-06 00:40:37 | 40.32552 | 23.48174 | 92° | 40km/h | 17742m | 0.6m/s | -44.4°C | 0.0% | 0hPa | 0V | 00:00:00 | 00:00:00 | 00:00:00 | |
| LZ4TU-5 | 2026-09-06 00:36:59 | 40.32853 | 23.45949 | 119° | 33km/h | 17489m | 1.6m/s | -47.0°C | 0.0% | 0hPa | 0V | 00:00:00 | 00:00:00 | 00:00:00 | |
| LZ4TU-5 | 2026-09-06 00:36:54 | 40.32869 | 23.45904 | 118° | 27km/h | 17481m | 1.5m/s | -47.0°C | 0.0% | 0hPa | 0V | 00:00:00 | 00:00:00 | 00:00:00 | |
| LZ4TU-5 | 2026-09-06 00:36:49 | 40.32889 | 23.45864 | 125° | 31km/h | 17473m | 1.6m/s | -47.0°C | 0.0% | 0hPa | 0V | 00:00:00 | 00:00:00 | 00:00:00 | |
| LZ4TU-5 | 2026-09-06 00:36:45 | 40.32905 | 23.45826 | 117° | 31km/h | 17467m | 1.7m/s | -47.0°C | 0.0% | 0hPa | 0V | 00:00:00 | 00:00:00 | 00:00:00 | |
| LZ4TU-5 | 2026-09-06 00:36:40 | 40.32922 | 23.45783 | 120° | 29km/h | 17459m | 1.4m/s | -47.0°C | 0.0% | 0hPa | 0V | 00:00:00 | 00:00:00 | 00:00:00 | |
| LZ4TU-5 | 2026-09-06 00:34:45 | 40.33345 | 23.44100 | 104° | 57km/h | 17245m | 2.1m/s | -47.1°C | 0.0% | 0hPa | 0V | 00:00:00 | 00:00:00 | 00:00:00 | |
| LZ4TU-5 | 2026-09-06 00:34:40 | 40.33357 | 23.44000 | 96° | 62km/h | 17233m | 2.1m/s | -47.2°C | 0.0% | 0hPa | 0V | 00:00:00 | 00:00:00 | 00:00:00 | |
| LZ4TU-5 | 2026-09-06 00:34:36 | 40.33366 | 23.43921 | 103° | 58km/h | 17225m | 2.1m/s | -47.2°C | 0.0% | 0hPa | 0V | 00:00:00 | 00:00:00 | 00:00:00 | |
| LZ4TU-5 | 2026-09-06 00:34:27 | 40.33385 | 23.43736 | 98° | 58km/h | 17204m | 2.5m/s | -47.5°C | 0.0% | 0hPa | 0V | 00:00:00 | 00:00:00 | 00:00:00 | |
| LZ4TU-5 | 2026-09-06 00:34:22 | 40.33398 | 23.43635 | 100° | 66km/h | 17191m | 2.3m/s | -47.5°C | 0.0% | 0hPa | 0V | 00:00:00 | 00:00:00 | 00:00:00 | |
| LZ4TU-5 | 2026-09-06 00:34:17 | 40.33407 | 23.43532 | 98° | 62km/h | 17178m | 2.8m/s | -47.5°C | 0.0% | 0hPa | 0V | 00:00:00 | 00:00:00 | 00:00:00 | |
| LZ4TU-5 | 2026-09-06 00:34:12 | 40.33422 | 23.43426 | 99° | 68km/h | 17165m | 2.9m/s | -47.5°C | 0.0% | 0hPa | 0V | 00:00:00 | 00:00:00 | 00:00:00 | |
| LZ4TU-5 | 2026-09-06 00:34:07 | 40.33431 | 23.43317 | 100° | 68km/h | 17150m | 2.9m/s | -47.5°C | 0.0% | 0hPa | 0V | 00:00:00 | 00:00:00 | 00:00:00 | |
| LZ4TU-5 | 2026-09-06 00:34:00 | 40.33448 | 23.43164 | 96° | 69km/h | 17132m | 2.7m/s | -47.5°C | 0.0% | 0hPa | 0V | 00:00:00 | 00:00:00 | 00:00:00 |